createdAt,value
2023-04-15T00:00:59.047Z,562.0000
2023-04-15T00:02:01.436Z,561.0000
2023-04-15T00:03:03.787Z,564.0000
2023-04-15T00:04:03.813Z,563.0000
2023-04-15T00:05:06.124Z,561.0000
2023-04-15T00:06:08.440Z,561.0000
2023-04-15T00:07:08.597Z,565.0000
2023-04-15T00:08:10.930Z,565.0000
2023-04-15T00:09:13.269Z,566.0000
2023-04-15T00:10:15.584Z,569.0000
2023-04-15T00:11:17.932Z,571.0000
2023-04-15T00:12:20.235Z,567.0000
2023-04-15T00:13:22.584Z,564.0000
2023-04-15T00:14:24.881Z,562.0000
2023-04-15T00:15:27.233Z,561.0000
2023-04-15T00:16:29.624Z,560.0000
2023-04-15T00:17:31.937Z,562.0000
2023-04-15T00:18:34.207Z,562.0000
2023-04-15T00:19:36.535Z,561.0000
2023-04-15T00:20:38.888Z,560.0000
2023-04-15T00:21:41.182Z,563.0000
2023-04-15T00:22:43.471Z,563.0000
2023-04-15T00:23:45.847Z,562.0000
2023-04-15T00:24:48.128Z,559.0000
2023-04-15T00:25:50.472Z,560.0000
2023-04-15T00:26:52.830Z,561.0000
2023-04-15T00:27:55.101Z,564.0000
2023-04-15T00:28:57.416Z,559.0000
2023-04-15T00:29:59.738Z,563.0000
2023-04-15T00:31:02.155Z,563.0000
2023-04-15T00:32:04.476Z,564.0000
2023-04-15T00:33:06.682Z,564.0000
2023-04-15T00:34:08.946Z,560.0000
2023-04-15T00:35:11.221Z,562.0000
2023-04-15T00:36:13.533Z,564.0000
2023-04-15T00:37:15.820Z,558.0000
2023-04-15T00:38:18.076Z,561.0000
2023-04-15T00:39:18.201Z,554.0000
2023-04-15T00:40:20.513Z,555.0000
2023-04-15T00:41:22.763Z,559.0000
2023-04-15T00:42:25.147Z,557.0000
2023-04-15T00:43:25.172Z,561.0000
2023-04-15T00:44:27.456Z,558.0000
2023-04-15T00:45:29.745Z,560.0000
2023-04-15T00:46:31.968Z,558.0000
2023-04-15T00:47:32.103Z,560.0000
2023-04-15T00:48:34.328Z,561.0000
2023-04-15T00:49:36.609Z,558.0000
2023-04-15T00:50:38.934Z,558.0000
2023-04-15T00:51:39.070Z,557.0000
2023-04-15T00:52:41.388Z,554.0000
2023-04-15T00:53:43.666Z,552.0000
2023-04-15T00:54:45.972Z,552.0000
2023-04-15T00:55:48.263Z,551.0000
2023-04-15T00:56:50.571Z,549.0000
2023-04-15T00:57:52.979Z,549.0000
2023-04-15T00:58:53.012Z,555.0000
2023-04-15T00:59:55.283Z,555.0000
2023-04-15T01:00:57.557Z,554.0000
2023-04-15T01:01:59.849Z,550.0000
2023-04-15T01:03:00.467Z,552.0000
2023-04-15T01:04:02.329Z,552.0000
2023-04-15T01:05:04.517Z,553.0000
2023-04-15T01:06:06.813Z,556.0000
2023-04-15T01:07:09.135Z,557.0000
2023-04-15T01:08:11.571Z,558.0000
2023-04-15T01:09:13.651Z,558.0000
2023-04-15T01:10:13.777Z,555.0000
2023-04-15T01:11:16.041Z,547.0000
2023-04-15T01:12:18.330Z,549.0000
2023-04-15T01:13:20.643Z,551.0000
2023-04-15T01:14:20.738Z,552.0000
2023-04-15T01:15:22.991Z,554.0000
2023-04-15T01:16:25.329Z,557.0000
2023-04-15T01:17:27.613Z,555.0000
2023-04-15T01:18:27.707Z,553.0000
2023-04-15T01:19:29.974Z,554.0000
2023-04-15T01:20:32.247Z,553.0000
2023-04-15T01:21:34.542Z,552.0000
2023-04-15T01:22:34.707Z,549.0000
2023-04-15T01:23:36.983Z,548.0000
2023-04-15T01:24:39.209Z,547.0000
2023-04-15T01:25:41.497Z,545.0000
2023-04-15T01:26:42.333Z,545.0000
2023-04-15T01:27:43.905Z,545.0000
2023-04-15T01:28:46.239Z,544.0000
2023-04-15T01:29:48.530Z,547.0000
2023-04-15T01:30:50.820Z,549.0000
2023-04-15T01:31:53.195Z,546.0000
2023-04-15T01:32:55.433Z,542.0000
2023-04-15T01:33:55.570Z,541.0000
2023-04-15T01:34:57.871Z,544.0000
2023-04-15T01:36:00.169Z,548.0000
2023-04-15T01:37:02.468Z,546.0000
2023-04-15T01:38:04.759Z,547.0000
2023-04-15T01:39:07.210Z,548.0000
2023-04-15T01:40:09.358Z,551.0000
2023-04-15T01:41:09.456Z,552.0000
2023-04-15T01:42:11.740Z,551.0000
2023-04-15T01:43:14.019Z,552.0000
2023-04-15T01:44:16.326Z,554.0000
2023-04-15T01:45:16.439Z,552.0000
2023-04-15T01:46:18.758Z,551.0000
2023-04-15T01:47:21.040Z,551.0000
2023-04-15T01:48:23.342Z,550.0000
2023-04-15T01:49:25.748Z,551.0000
2023-04-15T01:50:27.981Z,553.0000
2023-04-15T01:51:30.198Z,553.0000
2023-04-15T01:52:30.309Z,552.0000
2023-04-15T01:53:32.595Z,552.0000
2023-04-15T01:54:34.856Z,551.0000
2023-04-15T01:55:37.125Z,549.0000
2023-04-15T01:56:37.244Z,549.0000
2023-04-15T01:57:39.524Z,548.0000
2023-04-15T01:58:41.824Z,546.0000
2023-04-15T01:59:44.223Z,544.0000
2023-04-15T02:00:44.311Z,546.0000
2023-04-15T02:01:46.601Z,545.0000
2023-04-15T02:02:48.955Z,545.0000
2023-04-15T02:03:51.328Z,545.0000
2023-04-15T02:04:53.506Z,544.0000
2023-04-15T02:05:55.797Z,549.0000
2023-04-15T02:06:58.110Z,551.0000
2023-04-15T02:08:00.429Z,549.0000
2023-04-15T02:10:09.514Z,550.0000
2023-04-15T02:11:11.684Z,544.0000
2023-04-15T02:12:13.952Z,540.0000
2023-04-15T02:13:16.226Z,536.0000
2023-04-15T02:14:18.458Z,534.0000
2023-04-15T02:15:20.844Z,534.0000
2023-04-15T02:16:20.858Z,533.0000
2023-04-15T02:17:23.096Z,534.0000
2023-04-15T02:18:25.306Z,534.0000
2023-04-15T02:19:27.572Z,536.0000
2023-04-15T02:20:29.841Z,539.0000
2023-04-15T02:21:32.078Z,539.0000
2023-04-15T02:22:34.352Z,537.0000
2023-04-15T02:23:36.644Z,534.0000
2023-04-15T02:24:38.920Z,536.0000
2023-04-15T02:25:39.131Z,538.0000
2023-04-15T02:26:41.428Z,541.0000
2023-04-15T02:27:43.755Z,543.0000
2023-04-15T02:28:46.073Z,545.0000
2023-04-15T02:29:48.403Z,546.0000
2023-04-15T02:30:50.730Z,542.0000
2023-04-15T02:31:50.966Z,544.0000
2023-04-15T02:32:53.194Z,544.0000
2023-04-15T02:33:55.494Z,541.0000
2023-04-15T02:34:55.664Z,541.0000
2023-04-15T02:35:58.089Z,541.0000
2023-04-15T02:37:00.309Z,545.0000
2023-04-15T02:38:00.449Z,543.0000
2023-04-15T02:39:03.149Z,541.0000
2023-04-15T02:40:05.051Z,543.0000
2023-04-15T02:41:07.468Z,537.0000
2023-04-15T02:42:09.673Z,537.0000
2023-04-15T02:43:11.994Z,538.0000
2023-04-15T02:44:12.177Z,538.0000
2023-04-15T02:45:14.534Z,531.0000
2023-04-15T02:46:16.844Z,534.0000
2023-04-15T02:47:19.156Z,536.0000
2023-04-15T02:48:21.385Z,535.0000
2023-04-15T02:49:21.526Z,534.0000
2023-04-15T02:50:23.798Z,533.0000
2023-04-15T02:51:26.185Z,533.0000
2023-04-15T02:52:28.356Z,535.0000
2023-04-15T02:53:30.654Z,535.0000
2023-04-15T02:54:32.928Z,533.0000
2023-04-15T02:55:35.227Z,535.0000
2023-04-15T02:56:37.553Z,540.0000
2023-04-15T02:57:37.650Z,538.0000
2023-04-15T02:58:39.933Z,536.0000
2023-04-15T02:59:42.226Z,536.0000
2023-04-15T03:00:44.508Z,535.0000
2023-04-15T03:01:47.014Z,538.0000
2023-04-15T03:02:49.175Z,540.0000
2023-04-15T03:03:51.419Z,539.0000
2023-04-15T03:04:51.459Z,544.0000
2023-04-15T03:05:53.763Z,545.0000
2023-04-15T03:06:56.144Z,545.0000
2023-04-15T03:07:58.340Z,545.0000
2023-04-15T03:09:00.828Z,545.0000
2023-04-15T03:10:02.834Z,544.0000
2023-04-15T03:11:05.083Z,543.0000
2023-04-15T03:12:07.521Z,541.0000
2023-04-15T03:13:07.521Z,540.0000
2023-04-15T03:14:09.830Z,541.0000
2023-04-15T03:15:12.153Z,540.0000
2023-04-15T03:16:14.544Z,541.0000
2023-04-15T03:17:16.874Z,545.0000
2023-04-15T03:18:19.066Z,538.0000
2023-04-15T03:19:19.221Z,539.0000
2023-04-15T03:20:21.571Z,540.0000
2023-04-15T03:21:23.809Z,539.0000
2023-04-15T03:22:26.157Z,538.0000
2023-04-15T03:23:28.443Z,538.0000
2023-04-15T03:24:30.744Z,536.0000
2023-04-15T03:25:30.918Z,538.0000
2023-04-15T03:26:33.172Z,540.0000
2023-04-15T03:27:35.541Z,540.0000
2023-04-15T03:28:37.688Z,542.0000
2023-04-15T03:29:40.051Z,543.0000
2023-04-15T03:30:42.404Z,539.0000
2023-04-15T03:31:42.588Z,537.0000
2023-04-15T03:32:45.037Z,535.0000
2023-04-15T03:33:47.223Z,533.0000
2023-04-15T03:34:49.588Z,533.0000
2023-04-15T03:35:51.935Z,532.0000
2023-04-15T03:36:54.307Z,533.0000
2023-04-15T03:37:54.537Z,535.0000
2023-04-15T03:38:56.903Z,538.0000
2023-04-15T03:39:59.259Z,537.0000
2023-04-15T03:41:01.640Z,538.0000
2023-04-15T03:42:01.853Z,540.0000
2023-04-15T03:43:04.260Z,540.0000
2023-04-15T03:44:06.591Z,537.0000
2023-04-15T03:45:08.983Z,535.0000
2023-04-15T03:46:11.370Z,536.0000
2023-04-15T03:47:11.528Z,538.0000
2023-04-15T03:48:17.751Z,536.0000
2023-04-15T03:49:16.240Z,536.0000
2023-04-15T03:50:18.515Z,535.0000
2023-04-15T03:51:20.828Z,534.0000
2023-04-15T03:52:20.992Z,537.0000
2023-04-15T03:53:23.346Z,533.0000
2023-04-15T03:54:25.653Z,535.0000
2023-04-15T03:55:27.982Z,536.0000
2023-04-15T03:56:30.295Z,537.0000
2023-04-15T03:57:30.479Z,539.0000
2023-04-15T03:58:32.909Z,538.0000
2023-04-15T03:59:35.123Z,539.0000
2023-04-15T04:00:37.449Z,538.0000
2023-04-15T04:01:39.825Z,537.0000
2023-04-15T04:02:42.269Z,537.0000
2023-04-15T04:03:42.512Z,538.0000
2023-04-15T04:04:44.633Z,540.0000
2023-04-15T04:05:46.795Z,538.0000
2023-04-15T04:06:49.046Z,543.0000
2023-04-15T04:07:51.361Z,539.0000
2023-04-15T04:08:53.675Z,536.0000
2023-04-15T04:09:55.895Z,535.0000
2023-04-15T04:10:55.993Z,534.0000
2023-04-15T04:11:58.270Z,534.0000
2023-04-15T04:13:00.567Z,532.0000
2023-04-15T04:14:02.855Z,533.0000
2023-04-15T04:15:05.114Z,535.0000
2023-04-15T04:16:07.466Z,544.0000
2023-04-15T04:17:09.683Z,545.0000
2023-04-15T04:18:11.963Z,543.0000
2023-04-15T04:19:12.160Z,540.0000
2023-04-15T04:20:14.425Z,539.0000
2023-04-15T04:21:16.738Z,540.0000
2023-04-15T04:22:19.077Z,539.0000
2023-04-15T04:23:21.444Z,537.0000
2023-04-15T04:24:23.819Z,535.0000
2023-04-15T04:25:24.018Z,529.0000
2023-04-15T04:26:26.391Z,528.0000
2023-04-15T04:27:28.728Z,529.0000
2023-04-15T04:29:55.036Z,522.0000
2023-04-15T04:30:57.191Z,525.0000
2023-04-15T04:31:57.272Z,527.0000
2023-04-15T04:32:59.500Z,527.0000
2023-04-15T04:34:01.642Z,528.0000
2023-04-15T04:35:03.891Z,528.0000
2023-04-15T04:36:06.111Z,525.0000
2023-04-15T04:37:08.395Z,523.0000
2023-04-15T04:38:10.696Z,527.0000
2023-04-15T04:39:13.048Z,528.0000
2023-04-15T04:40:15.492Z,528.0000
2023-04-15T04:41:15.572Z,525.0000
2023-04-15T04:42:17.910Z,526.0000
2023-04-15T04:43:20.207Z,528.0000
2023-04-15T04:44:22.533Z,530.0000
2023-04-15T04:45:24.896Z,531.0000
2023-04-15T04:46:25.054Z,529.0000
2023-04-15T04:47:27.443Z,531.0000
2023-04-15T04:48:29.716Z,530.0000
2023-04-15T04:49:32.042Z,530.0000
2023-04-15T04:50:34.502Z,528.0000
2023-04-15T04:51:36.741Z,529.0000
2023-04-15T04:52:36.933Z,531.0000
2023-04-15T04:53:39.284Z,527.0000
2023-04-15T04:54:41.559Z,528.0000
2023-04-15T04:55:43.890Z,531.0000
2023-04-15T04:56:46.186Z,533.0000
2023-04-15T04:57:46.294Z,532.0000
2023-04-15T04:58:48.534Z,533.0000
2023-04-15T04:59:50.808Z,534.0000
2023-04-15T05:00:53.221Z,531.0000
2023-04-15T05:01:55.421Z,530.0000
2023-04-15T05:02:57.897Z,530.0000
2023-04-15T05:04:00.272Z,529.0000
2023-04-15T05:05:02.434Z,531.0000
2023-04-15T05:06:04.824Z,528.0000
2023-04-15T05:07:07.146Z,528.0000
2023-04-15T05:08:09.448Z,531.0000
2023-04-15T05:09:11.727Z,533.0000
2023-04-15T05:10:11.915Z,532.0000
2023-04-15T05:11:14.258Z,531.0000
2023-04-15T05:12:16.554Z,529.0000
2023-04-15T05:13:18.850Z,528.0000
2023-04-15T05:14:23.511Z,528.0000
2023-04-15T05:15:06.277Z,529.0000
2023-04-15T05:16:08.688Z,530.0000
2023-04-15T05:17:10.966Z,531.0000
2023-04-15T05:18:13.286Z,533.0000
2023-04-15T05:19:15.610Z,534.0000
2023-04-15T05:20:17.917Z,533.0000
2023-04-15T05:21:18.061Z,536.0000
2023-04-15T05:22:20.541Z,535.0000
2023-04-15T05:23:22.716Z,533.0000
2023-04-15T05:24:25.020Z,531.0000
2023-04-15T05:25:27.323Z,532.0000
2023-04-15T05:26:29.624Z,530.0000
2023-04-15T05:27:29.825Z,524.0000
2023-04-15T05:28:32.119Z,524.0000
2023-04-15T05:29:34.420Z,525.0000
2023-04-15T05:30:36.728Z,525.0000
2023-04-15T05:31:39.148Z,524.0000
2023-04-15T05:32:41.417Z,524.0000
2023-04-15T05:33:41.432Z,526.0000
2023-04-15T05:34:43.767Z,524.0000
2023-04-15T05:35:46.096Z,525.0000
2023-04-15T05:36:48.431Z,526.0000
2023-04-15T05:37:50.757Z,526.0000
2023-04-15T05:38:53.000Z,527.0000
2023-04-15T05:39:55.230Z,527.0000
2023-04-15T05:40:55.346Z,524.0000
2023-04-15T05:41:57.681Z,527.0000
2023-04-15T05:42:59.996Z,527.0000
2023-04-15T05:44:02.337Z,525.0000
2023-04-15T05:45:04.691Z,525.0000
2023-04-15T05:46:07.052Z,524.0000
2023-04-15T05:47:07.245Z,523.0000
2023-04-15T05:48:09.590Z,524.0000
2023-04-15T05:49:11.931Z,526.0000
2023-04-15T05:50:14.214Z,528.0000
2023-04-15T05:51:16.554Z,531.0000
2023-04-15T05:52:16.711Z,530.0000
2023-04-15T05:53:19.009Z,530.0000
2023-04-15T05:54:21.318Z,530.0000
2023-04-15T05:55:23.649Z,532.0000
2023-04-15T05:56:25.968Z,536.0000
2023-04-15T05:57:26.142Z,537.0000
2023-04-15T05:58:28.506Z,537.0000
2023-04-15T05:59:30.758Z,542.0000
2023-04-15T06:00:33.035Z,542.0000
2023-04-15T06:01:35.367Z,558.0000
2023-04-15T06:02:37.927Z,530.0000
2023-04-15T06:03:40.225Z,524.0000
2023-04-15T06:04:40.310Z,539.0000
2023-04-15T06:05:42.548Z,545.0000
2023-04-15T06:07:55.878Z,550.0000
2023-04-15T06:08:58.134Z,553.0000
2023-04-15T06:10:00.352Z,551.0000
2023-04-15T06:11:00.507Z,551.0000
2023-04-15T06:12:02.800Z,552.0000
2023-04-15T06:13:05.087Z,550.0000
2023-04-15T06:14:07.445Z,549.0000
2023-04-15T06:15:09.609Z,551.0000
2023-04-15T06:16:11.957Z,552.0000
2023-04-15T06:17:12.046Z,552.0000
2023-04-15T06:18:14.360Z,551.0000
2023-04-15T06:19:16.667Z,551.0000
2023-04-15T06:20:18.953Z,553.0000
2023-04-15T06:21:21.228Z,554.0000
2023-04-15T06:22:23.465Z,552.0000
2023-04-15T06:23:26.937Z,549.0000
2023-04-15T06:24:25.953Z,550.0000
2023-04-15T06:25:28.235Z,549.0000
2023-04-15T06:26:30.504Z,549.0000
2023-04-15T06:27:32.780Z,552.0000
2023-04-15T06:28:35.085Z,554.0000
2023-04-15T06:29:37.403Z,558.0000
2023-04-15T06:30:39.671Z,557.0000
2023-04-15T06:31:39.985Z,558.0000
2023-04-15T06:32:42.193Z,558.0000
2023-04-15T06:33:44.513Z,559.0000
2023-04-15T06:34:46.830Z,560.0000
2023-04-15T06:35:49.112Z,562.0000
2023-04-15T06:36:51.432Z,565.0000
2023-04-15T06:37:51.587Z,564.0000
2023-04-15T06:38:53.905Z,564.0000
2023-04-15T06:39:56.312Z,567.0000
2023-04-15T06:40:58.494Z,566.0000
2023-04-15T06:42:00.763Z,566.0000
2023-04-15T06:43:03.013Z,564.0000
2023-04-15T06:44:03.124Z,566.0000
2023-04-15T06:45:05.448Z,568.0000
2023-04-15T06:46:07.728Z,571.0000
2023-04-15T06:47:09.973Z,572.0000
2023-04-15T06:48:12.273Z,573.0000
2023-04-15T06:49:14.637Z,576.0000
2023-04-15T06:50:16.929Z,579.0000
2023-04-15T06:51:17.042Z,583.0000
2023-04-15T06:52:19.358Z,583.0000
2023-04-15T06:53:21.621Z,586.0000
2023-04-15T06:54:23.857Z,589.0000
2023-04-15T06:55:26.152Z,593.0000
2023-04-15T06:56:28.342Z,598.0000
2023-04-15T06:57:31.542Z,600.0000
2023-04-15T06:58:30.806Z,601.0000
2023-04-15T06:59:33.113Z,602.0000
2023-04-15T07:00:35.529Z,606.0000
2023-04-15T07:01:37.742Z,606.0000
2023-04-15T07:02:40.153Z,606.0000
2023-04-15T07:03:42.228Z,608.0000
2023-04-15T07:04:44.500Z,608.0000
2023-04-15T07:05:44.712Z,610.0000
2023-04-15T07:06:46.900Z,610.0000
2023-04-15T07:07:49.186Z,613.0000
2023-04-15T07:08:51.466Z,617.0000
2023-04-15T07:09:53.751Z,620.0000
2023-04-15T07:10:56.089Z,620.0000
2023-04-15T07:11:56.215Z,624.0000
2023-04-15T07:12:58.518Z,624.0000
2023-04-15T07:14:00.767Z,629.0000
2023-04-15T07:15:03.046Z,630.0000
2023-04-15T07:16:05.419Z,631.0000
2023-04-15T07:17:07.837Z,634.0000
2023-04-15T07:18:09.922Z,636.0000
2023-04-15T07:19:12.192Z,636.0000
2023-04-15T07:20:14.510Z,639.0000
2023-04-15T07:21:16.810Z,641.0000
2023-04-15T07:22:19.032Z,646.0000
2023-04-15T07:23:21.314Z,646.0000
2023-04-15T07:24:23.631Z,646.0000
2023-04-15T07:25:25.935Z,650.0000
2023-04-15T07:26:26.110Z,652.0000
2023-04-15T07:27:28.418Z,651.0000
2023-04-15T07:28:30.756Z,655.0000
2023-04-15T07:29:33.037Z,656.0000
2023-04-15T07:30:35.435Z,656.0000
2023-04-15T07:31:37.752Z,658.0000
2023-04-15T07:32:37.825Z,660.0000
2023-04-15T07:33:40.029Z,664.0000
2023-04-15T07:34:42.304Z,665.0000
2023-04-15T07:35:44.583Z,665.0000
2023-04-15T07:36:46.954Z,663.0000
2023-04-15T07:37:49.155Z,664.0000
2023-04-15T07:38:51.461Z,664.0000
2023-04-15T07:39:53.694Z,666.0000
2023-04-15T07:40:53.843Z,667.0000
2023-04-15T07:41:56.236Z,667.0000
2023-04-15T07:42:58.401Z,667.0000
2023-04-15T07:44:00.661Z,668.0000
2023-04-15T07:45:02.962Z,669.0000
2023-04-15T07:46:05.230Z,672.0000
2023-04-15T07:48:09.979Z,674.0000
2023-04-15T07:49:12.045Z,674.0000
2023-04-15T07:50:14.281Z,678.0000
2023-04-15T07:51:14.423Z,679.0000
2023-04-15T07:52:16.643Z,679.0000
2023-04-15T07:53:18.873Z,679.0000
2023-04-15T07:54:21.147Z,681.0000
2023-04-15T07:55:23.442Z,686.0000
2023-04-15T07:56:25.703Z,687.0000
2023-04-15T07:57:27.958Z,684.0000
2023-04-15T07:58:30.288Z,687.0000
2023-04-15T07:59:32.507Z,687.0000
2023-04-15T08:00:32.655Z,684.0000
2023-04-15T08:01:34.928Z,683.0000
2023-04-15T08:02:39.059Z,680.0000
2023-04-15T08:04:52.757Z,664.0000
2023-04-15T08:05:53.733Z,669.0000
2023-04-15T08:06:54.956Z,672.0000
2023-04-15T08:07:57.015Z,671.0000
2023-04-15T08:08:59.193Z,673.0000
2023-04-15T08:10:01.373Z,668.0000
2023-04-15T08:11:03.522Z,670.0000
2023-04-15T08:12:05.692Z,673.0000
2023-04-15T08:13:07.873Z,673.0000
2023-04-15T08:14:09.995Z,675.0000
2023-04-15T08:15:12.215Z,675.0000
2023-04-15T08:16:14.460Z,674.0000
2023-04-15T08:17:16.537Z,673.0000
2023-04-15T08:18:16.543Z,670.0000
2023-04-15T08:19:18.732Z,668.0000
2023-04-15T08:20:21.050Z,668.0000
2023-04-15T08:21:23.165Z,664.0000
2023-04-15T08:22:25.371Z,662.0000
2023-04-15T08:23:27.544Z,663.0000
2023-04-15T08:24:29.747Z,665.0000
2023-04-15T08:25:31.967Z,665.0000
2023-04-15T08:26:34.109Z,665.0000
2023-04-15T08:27:36.312Z,665.0000
2023-04-15T08:28:38.555Z,664.0000
2023-04-15T08:29:40.778Z,663.0000
2023-04-15T08:30:43.007Z,656.0000
2023-04-15T08:31:45.216Z,653.0000
2023-04-15T08:32:47.624Z,655.0000
2023-04-15T08:33:49.603Z,649.0000
2023-04-15T08:34:51.878Z,648.0000
2023-04-15T08:35:52.025Z,651.0000
2023-04-15T08:36:54.275Z,650.0000
2023-04-15T08:37:54.519Z,649.0000
2023-04-15T08:38:56.727Z,650.0000
2023-04-15T08:39:59.012Z,653.0000
2023-04-15T08:41:01.341Z,652.0000
2023-04-15T08:42:01.511Z,650.0000
2023-04-15T08:43:03.829Z,649.0000
2023-04-15T08:44:06.188Z,646.0000
2023-04-15T08:45:08.503Z,647.0000
2023-04-15T08:46:10.838Z,646.0000
2023-04-15T08:47:10.991Z,648.0000
2023-04-15T08:48:13.187Z,647.0000
2023-04-15T08:49:15.450Z,643.0000
2023-04-15T08:50:17.681Z,645.0000
2023-04-15T08:51:19.999Z,645.0000
2023-04-15T08:52:22.100Z,645.0000
2023-04-15T08:53:24.394Z,642.0000
2023-04-15T08:54:26.650Z,644.0000
2023-04-15T08:55:28.893Z,642.0000
2023-04-15T08:56:31.188Z,646.0000
2023-04-15T08:57:33.389Z,645.0000
2023-04-15T08:58:33.527Z,646.0000
2023-04-15T08:59:35.815Z,645.0000
2023-04-15T09:00:38.144Z,645.0000
2023-04-15T09:01:42.988Z,642.0000
2023-04-15T09:02:04.170Z,641.0000
2023-04-15T09:03:06.502Z,643.0000
2023-04-15T09:04:08.774Z,644.0000
2023-04-15T09:05:11.031Z,646.0000
2023-04-15T09:06:13.319Z,645.0000
2023-04-15T09:07:15.708Z,644.0000
2023-04-15T09:08:17.984Z,642.0000
2023-04-15T09:09:20.311Z,644.0000
2023-04-15T09:10:20.476Z,640.0000
2023-04-15T09:11:22.799Z,640.0000
2023-04-15T09:12:25.156Z,639.0000
2023-04-15T09:13:27.443Z,640.0000
2023-04-15T09:14:29.773Z,639.0000
2023-04-15T09:15:29.957Z,634.0000
2023-04-15T09:16:32.306Z,628.0000
2023-04-15T09:17:34.738Z,628.0000
2023-04-15T09:18:36.944Z,628.0000
2023-04-15T09:19:39.251Z,628.0000
2023-04-15T09:20:41.584Z,627.0000
2023-04-15T09:21:41.756Z,626.0000
2023-04-15T09:22:44.116Z,627.0000
2023-04-15T09:23:46.398Z,624.0000
2023-04-15T09:24:48.745Z,622.0000
2023-04-15T09:25:51.050Z,623.0000
2023-04-15T09:26:53.388Z,623.0000
2023-04-15T09:27:53.509Z,621.0000
2023-04-15T09:28:55.761Z,621.0000
2023-04-15T09:29:58.032Z,619.0000
2023-04-15T09:31:00.333Z,619.0000
2023-04-15T09:32:02.503Z,621.0000
2023-04-15T09:33:04.863Z,617.0000
2023-04-15T09:34:07.025Z,619.0000
2023-04-15T09:35:09.295Z,621.0000
2023-04-15T09:36:11.560Z,618.0000
2023-04-15T09:37:28.474Z,616.0000
2023-04-15T09:38:16.165Z,616.0000
2023-04-15T09:39:18.438Z,616.0000
2023-04-15T09:40:20.750Z,614.0000
2023-04-15T09:41:23.005Z,615.0000
2023-04-15T09:42:23.129Z,615.0000
2023-04-15T09:43:25.414Z,613.0000
2023-04-15T09:44:27.670Z,612.0000
2023-04-15T09:45:30.126Z,609.0000
2023-04-15T09:46:32.313Z,607.0000
2023-04-15T09:47:34.491Z,606.0000
2023-04-15T09:48:36.739Z,604.0000
2023-04-15T09:49:39.030Z,605.0000
2023-04-15T09:50:39.121Z,604.0000
2023-04-15T09:51:43.357Z,605.0000
2023-04-15T09:52:43.705Z,602.0000
2023-04-15T09:53:46.036Z,603.0000
2023-04-15T09:54:48.347Z,603.0000
2023-04-15T09:55:50.690Z,599.0000
2023-04-15T09:56:53.005Z,600.0000
2023-04-15T09:57:53.125Z,602.0000
2023-04-15T09:58:55.475Z,601.0000
2023-04-15T09:59:57.765Z,600.0000
2023-04-15T10:01:00.096Z,596.0000
2023-04-15T10:02:02.426Z,600.0000
2023-04-15T10:03:04.809Z,598.0000
2023-04-15T10:04:05.189Z,593.0000
2023-04-15T10:05:07.246Z,591.0000
2023-04-15T10:06:09.522Z,589.0000
2023-04-15T10:07:11.870Z,587.0000
2023-04-15T10:08:14.197Z,590.0000
2023-04-15T10:09:14.431Z,588.0000
2023-04-15T10:10:16.756Z,588.0000
2023-04-15T10:11:19.089Z,591.0000
2023-04-15T10:12:21.398Z,590.0000
2023-04-15T10:13:23.752Z,590.0000
2023-04-15T10:14:23.940Z,589.0000
2023-04-15T10:15:26.278Z,588.0000
2023-04-15T10:16:28.609Z,587.0000
2023-04-15T10:17:31.710Z,589.0000
2023-04-15T10:18:32.168Z,597.0000
2023-04-15T10:19:34.555Z,593.0000
2023-04-15T10:20:34.688Z,593.0000
2023-04-15T10:21:37.036Z,590.0000
2023-04-15T10:22:39.373Z,592.0000
2023-04-15T10:23:41.672Z,591.0000
2023-04-15T10:24:43.988Z,588.0000
2023-04-15T10:25:46.298Z,588.0000
2023-04-15T10:26:48.630Z,584.0000
2023-04-15T10:27:50.953Z,584.0000
2023-04-15T10:28:53.290Z,581.0000
2023-04-15T10:29:55.615Z,581.0000
2023-04-15T10:30:57.968Z,581.0000
2023-04-15T10:32:00.235Z,581.0000
2023-04-15T10:33:02.689Z,582.0000
2023-04-15T10:34:04.984Z,582.0000
2023-04-15T10:35:07.245Z,581.0000
2023-04-15T10:36:09.537Z,578.0000
2023-04-15T10:37:11.836Z,576.0000
2023-04-15T10:38:14.120Z,579.0000
2023-04-15T10:39:16.451Z,572.0000
2023-04-15T10:40:18.767Z,572.0000
2023-04-15T10:41:21.604Z,572.0000
2023-04-15T10:42:23.314Z,571.0000
2023-04-15T10:43:23.420Z,570.0000
2023-04-15T10:44:25.723Z,575.0000
2023-04-15T10:45:27.996Z,570.0000
2023-04-15T10:46:30.247Z,573.0000
2023-04-15T10:47:32.454Z,572.0000
2023-04-15T10:48:34.693Z,573.0000
2023-04-15T10:49:37.000Z,572.0000
2023-04-15T10:50:39.451Z,568.0000
2023-04-15T10:51:41.612Z,571.0000
2023-04-15T10:52:43.879Z,567.0000
2023-04-15T10:53:46.096Z,566.0000
2023-04-15T10:54:48.348Z,565.0000
2023-04-15T10:55:50.551Z,568.0000
2023-04-15T10:56:52.776Z,564.0000
2023-04-15T10:57:55.017Z,569.0000
2023-04-15T10:58:57.194Z,570.0000
2023-04-15T10:59:59.449Z,573.0000
2023-04-15T11:01:01.697Z,574.0000
2023-04-15T11:02:04.046Z,570.0000
2023-04-15T11:03:06.370Z,570.0000
2023-04-15T11:04:08.604Z,573.0000
2023-04-15T11:05:10.711Z,574.0000
2023-04-15T11:06:12.991Z,571.0000
2023-04-15T11:07:13.110Z,570.0000
2023-04-15T11:08:15.365Z,566.0000
2023-04-15T11:09:17.655Z,571.0000
2023-04-15T11:10:19.942Z,574.0000
2023-04-15T11:11:20.102Z,574.0000
2023-04-15T11:12:22.322Z,574.0000
2023-04-15T11:13:24.585Z,570.0000
2023-04-15T11:14:26.803Z,565.0000
2023-04-15T11:15:29.059Z,559.0000
2023-04-15T11:16:31.387Z,558.0000
2023-04-15T11:17:33.594Z,557.0000
2023-04-15T11:18:35.841Z,558.0000
2023-04-15T11:19:35.958Z,557.0000
2023-04-15T11:20:38.227Z,562.0000
2023-04-15T11:21:40.549Z,561.0000
2023-04-15T11:22:42.839Z,556.0000
2023-04-15T11:23:43.020Z,557.0000
2023-04-15T11:24:45.257Z,558.0000
2023-04-15T11:25:47.528Z,560.0000
2023-04-15T11:26:49.819Z,563.0000
2023-04-15T11:27:49.926Z,556.0000
2023-04-15T11:28:52.189Z,557.0000
2023-04-15T11:29:54.401Z,557.0000
2023-04-15T11:30:56.675Z,562.0000
2023-04-15T11:31:56.872Z,560.0000
2023-04-15T11:32:59.095Z,562.0000
2023-04-15T11:34:01.303Z,560.0000
2023-04-15T11:35:03.570Z,560.0000
2023-04-15T11:36:03.687Z,561.0000
2023-04-15T11:37:05.986Z,556.0000
2023-04-15T11:38:08.216Z,557.0000
2023-04-15T11:39:10.479Z,561.0000
2023-04-15T11:40:12.747Z,559.0000
2023-04-15T11:41:15.001Z,559.0000
2023-04-15T11:42:17.272Z,557.0000
2023-04-15T11:43:19.469Z,556.0000
2023-04-15T11:44:21.707Z,558.0000
2023-04-15T11:45:23.930Z,555.0000
2023-04-15T11:46:26.185Z,554.0000
2023-04-15T11:47:28.451Z,552.0000
2023-04-15T11:48:28.580Z,549.0000
2023-04-15T11:49:30.796Z,552.0000
2023-04-15T11:50:33.053Z,551.0000
2023-04-15T11:51:35.319Z,551.0000
2023-04-15T11:52:37.700Z,548.0000
2023-04-15T11:53:39.828Z,554.0000
2023-04-15T11:54:42.063Z,553.0000
2023-04-15T11:55:44.294Z,552.0000
2023-04-15T11:56:46.554Z,549.0000
2023-04-15T11:57:48.834Z,548.0000
2023-04-15T11:58:51.067Z,548.0000
2023-04-15T11:59:53.343Z,552.0000
2023-04-15T12:00:53.400Z,550.0000
2023-04-15T12:01:55.611Z,548.0000
2023-04-15T12:02:57.913Z,548.0000
2023-04-15T12:04:00.337Z,551.0000
2023-04-15T12:05:02.480Z,543.0000
2023-04-15T12:06:04.618Z,546.0000
2023-04-15T12:07:06.888Z,546.0000
2023-04-15T12:08:09.156Z,541.0000
2023-04-15T12:09:11.401Z,542.0000
2023-04-15T12:10:13.657Z,541.0000
2023-04-15T12:11:15.924Z,542.0000
2023-04-15T12:12:18.175Z,540.0000
2023-04-15T12:13:18.300Z,538.0000